WADD

Denpasar/Ngurah Rai International Airport

Airport
ICAO code
WADD
IATA Code
DPS
Summary
ICAO Region
APAC
ICAO Territory
Location

Denpasar, Badung, Bali

Serving
Denpasar
Elevation
4 ft
Coordinates
8° 44' 53" S , 115° 10' 3" E
KCC
Aw
Metar
Observation
WADD 170930Z 14015KT 9999 SCT017 28/24 Q1011 NOSIG
Station
BALI INTL
Date/Time
2022-08-17 09:30:00
Wind direction
140°
Wind speed
15 kts
Lowest cloud amount
scattered clouds
Temperature
28°C
Dew point
24°C
Humidity
78%
QNH
1011 hPa
Weather condition
n/a

International airport serving Bali and Denpasar.

Climatology

Tropical Savanna climate (Köppen climate classification Aw) - monthly mean temperature above 18°C in every month of the year and a pronounced dry season.

Airport map

Aerial View

SKYbrary Partners:

Safety knowledge contributed by: